createdAt,value
2022-12-03T00:00:36.420Z,37.88
2022-12-03T00:03:55.356Z,37.05
2022-12-03T00:10:01.129Z,36.75
2022-12-03T00:13:03.940Z,38.45
2022-12-03T00:16:06.974Z,36.70
2022-12-03T00:19:11.166Z,33.13
2022-12-03T00:22:13.907Z,38.80
2022-12-03T00:25:17.819Z,38.00
2022-12-03T00:28:20.799Z,38.20
2022-12-03T00:31:24.510Z,42.25
2022-12-03T00:34:27.247Z,44.80
2022-12-03T00:37:30.171Z,44.03
2022-12-03T00:40:32.969Z,45.88
2022-12-03T00:43:35.760Z,38.55
2022-12-03T00:46:38.596Z,40.80
2022-12-03T00:52:44.859Z,40.10
2022-12-03T00:55:47.593Z,40.22
2022-12-03T00:58:50.752Z,44.85
2022-12-03T01:01:53.788Z,43.05
2022-12-03T01:04:56.981Z,43.90
2022-12-03T01:08:00.183Z,46.53
2022-12-03T01:11:03.208Z,42.88
2022-12-03T01:14:11.907Z,50.33
2022-12-03T01:17:14.782Z,43.90
2022-12-03T01:20:17.587Z,41.40
2022-12-03T01:23:20.423Z,48.28
2022-12-03T01:26:23.425Z,45.17
2022-12-03T01:29:26.312Z,52.08
2022-12-03T01:32:29.083Z,40.78
2022-12-03T01:35:31.865Z,45.55
2022-12-03T01:38:34.713Z,46.95
2022-12-03T01:41:38.202Z,43.07
2022-12-03T01:47:43.746Z,43.67
2022-12-03T01:50:46.597Z,43.22
2022-12-03T01:53:50.224Z,42.33
2022-12-03T01:56:56.177Z,41.65
2022-12-03T02:00:00.390Z,44.17
2022-12-03T02:03:11.006Z,44.03
2022-12-03T02:06:21.255Z,41.78
2022-12-03T02:09:24.012Z,45.95
2022-12-03T02:12:40.946Z,44.25
2022-12-03T02:15:43.905Z,38.75
2022-12-03T02:18:47.013Z,40.95
2022-12-03T02:21:49.674Z,43.53
2022-12-03T02:24:59.173Z,45.90
2022-12-03T02:28:03.615Z,40.60
2022-12-03T02:31:06.616Z,48.42
2022-12-03T02:34:10.996Z,47.78
2022-12-03T02:37:30.756Z,43.72
2022-12-03T02:40:34.432Z,41.33
2022-12-03T02:43:39.991Z,39.15
2022-12-03T02:46:43.563Z,42.90
2022-12-03T02:49:46.482Z,46.40
2022-12-03T02:52:50.327Z,40.65
2022-12-03T02:55:56.171Z,40.25
2022-12-03T02:59:03.167Z,43.28
2022-12-03T03:02:06.306Z,40.28
2022-12-03T03:05:11.843Z,41.90
2022-12-03T03:08:14.678Z,36.03
2022-12-03T03:11:18.666Z,42.97
2022-12-03T03:14:21.428Z,41.70
2022-12-03T03:17:24.262Z,38.78
2022-12-03T03:20:27.001Z,41.67
2022-12-03T03:23:29.928Z,45.60
2022-12-03T03:26:32.723Z,34.92
2022-12-03T03:29:36.019Z,39.15
2022-12-03T03:32:40.153Z,43.45
2022-12-03T03:35:45.222Z,48.17
2022-12-03T03:38:48.578Z,42.75
2022-12-03T03:41:51.502Z,41.28
2022-12-03T03:44:55.646Z,41.05
2022-12-03T03:48:00.128Z,42.35
2022-12-03T03:51:08.842Z,44.13
2022-12-03T03:54:12.249Z,39.58
2022-12-03T03:57:15.120Z,42.45
2022-12-03T04:00:18.251Z,42.55
2022-12-03T04:03:20.989Z,42.92
2022-12-03T04:06:23.777Z,41.17
2022-12-03T04:09:26.490Z,42.10
2022-12-03T04:12:48.130Z,39.58
2022-12-03T04:15:50.866Z,44.42
2022-12-03T04:18:53.671Z,42.90
2022-12-03T04:22:15.024Z,43.33
2022-12-03T04:25:36.729Z,40.30
2022-12-03T04:28:51.521Z,45.33
2022-12-03T04:32:12.875Z,43.47
2022-12-03T04:35:34.541Z,41.78
2022-12-03T04:38:37.317Z,43.83
2022-12-03T04:41:40.283Z,45.35
2022-12-03T04:44:43.234Z,46.20
2022-12-03T04:47:46.127Z,40.05
2022-12-03T04:50:48.886Z,46.92
2022-12-03T04:53:51.714Z,41.58
2022-12-03T04:56:54.575Z,46.03
2022-12-03T04:59:57.302Z,47.50
2022-12-03T05:03:00.637Z,47.97
2022-12-03T05:06:04.464Z,44.95
2022-12-03T05:09:07.203Z,49.97
2022-12-03T05:12:09.953Z,50.63
2022-12-03T05:15:12.691Z,48.55
2022-12-03T05:18:15.426Z,50.12
2022-12-03T05:21:18.197Z,47.50
2022-12-03T05:24:20.988Z,44.60
2022-12-03T05:27:24.386Z,52.90
2022-12-03T05:30:27.329Z,47.62
2022-12-03T05:33:30.131Z,43.80
2022-12-03T05:36:33.004Z,48.72
2022-12-03T05:39:35.830Z,43.87
2022-12-03T05:42:54.236Z,50.67
2022-12-03T05:45:57.033Z,43.47
2022-12-03T05:48:59.821Z,40.95
2022-12-03T05:52:02.643Z,42.85
2022-12-03T05:55:06.403Z,44.38
2022-12-03T05:58:09.248Z,44.53
2022-12-03T06:01:12.799Z,44.03
2022-12-03T06:04:16.268Z,45.85
2022-12-03T06:07:18.841Z,42.92
2022-12-03T06:10:24.108Z,41.20
2022-12-03T06:13:26.526Z,48.95
2022-12-03T06:16:29.923Z,47.55
2022-12-03T06:19:33.686Z,47.10
2022-12-03T06:22:36.726Z,50.58
2022-12-03T06:25:39.205Z,42.25
2022-12-03T06:28:47.608Z,40.83
2022-12-03T06:31:50.139Z,46.80
2022-12-03T06:34:53.565Z,46.58
2022-12-03T06:37:56.125Z,45.15
2022-12-03T06:40:59.236Z,46.35
2022-12-03T06:44:01.706Z,46.63
2022-12-03T06:47:04.728Z,47.17
2022-12-03T06:50:09.318Z,45.25
2022-12-03T06:53:12.345Z,45.72
2022-12-03T06:56:16.900Z,46.70
2022-12-03T06:59:23.232Z,51.40
2022-12-03T07:02:25.773Z,46.97
2022-12-03T07:08:31.517Z,48.35
2022-12-03T07:11:40.550Z,43.45
2022-12-03T07:14:43.229Z,45.50
2022-12-03T07:17:46.269Z,47.20
2022-12-03T07:20:50.954Z,49.10
2022-12-03T07:23:55.902Z,47.47
2022-12-03T07:26:58.553Z,52.07
2022-12-03T07:30:01.706Z,46.58
2022-12-03T07:33:04.221Z,47.40
2022-12-03T07:36:09.555Z,50.00
2022-12-03T07:39:12.940Z,48.00
2022-12-03T07:42:15.907Z,50.45
2022-12-03T07:45:18.366Z,47.08
2022-12-03T07:48:21.390Z,49.97
2022-12-03T07:51:27.508Z,49.40
2022-12-03T07:54:34.902Z,48.55
2022-12-03T07:57:37.722Z,52.10
2022-12-03T08:00:40.823Z,48.95
2022-12-03T08:03:43.704Z,45.47
2022-12-03T08:06:46.795Z,44.78
2022-12-03T08:09:50.391Z,46.37
2022-12-03T08:12:53.874Z,55.20
2022-12-03T08:16:00.874Z,53.95
2022-12-03T08:19:09.335Z,49.65
2022-12-03T08:22:15.809Z,51.47
2022-12-03T08:25:21.561Z,51.37
2022-12-03T08:28:26.746Z,50.35
2022-12-03T08:31:33.737Z,51.78
2022-12-03T08:34:43.197Z,54.85
2022-12-03T08:37:45.978Z,54.15
2022-12-03T08:40:51.225Z,48.67
2022-12-03T08:43:53.975Z,53.28
2022-12-03T08:47:09.014Z,44.42
2022-12-03T08:50:32.903Z,49.65
2022-12-03T08:59:45.455Z,43.63
2022-12-03T09:02:54.518Z,43.95
2022-12-03T09:05:57.345Z,41.78
2022-12-03T09:09:05.151Z,43.63
2022-12-03T09:12:09.537Z,40.42
2022-12-03T09:15:12.298Z,44.70
2022-12-03T09:18:15.221Z,40.63
2022-12-03T09:21:18.033Z,40.63
2022-12-03T09:24:21.418Z,45.38
2022-12-03T09:27:24.274Z,39.13
2022-12-03T09:30:27.057Z,40.88
2022-12-03T09:33:32.396Z,37.63
2022-12-03T09:36:35.215Z,36.67
2022-12-03T09:39:37.997Z,38.58
2022-12-03T09:42:41.424Z,42.20
2022-12-03T09:45:49.425Z,39.97
2022-12-03T09:48:52.486Z,39.10
2022-12-03T09:51:57.476Z,38.85
2022-12-03T09:55:14.002Z,40.28
2022-12-03T09:58:19.114Z,37.85
2022-12-03T10:01:22.435Z,38.90
2022-12-03T10:04:29.885Z,38.50
2022-12-03T10:07:32.512Z,38.58
2022-12-03T10:10:37.630Z,38.42
2022-12-03T10:13:40.787Z,33.60
2022-12-03T10:16:44.039Z,36.65
2022-12-03T10:19:46.919Z,34.08
2022-12-03T10:22:50.218Z,31.95
2022-12-03T10:26:10.745Z,31.48
2022-12-03T10:29:17.054Z,28.42
2022-12-03T10:32:38.233Z,31.90
2022-12-03T10:35:41.464Z,30.70
2022-12-03T10:38:44.723Z,30.62
2022-12-03T10:41:49.148Z,30.15
2022-12-03T10:45:18.379Z,29.12
2022-12-03T10:48:27.564Z,26.23
2022-12-03T10:51:30.561Z,26.08
2022-12-03T10:54:35.871Z,26.02
2022-12-03T10:57:43.720Z,26.67
2022-12-03T11:00:50.800Z,25.60
2022-12-03T11:03:56.632Z,22.10
2022-12-03T11:07:02.503Z,22.73
2022-12-03T11:10:12.272Z,25.33
2022-12-03T11:13:33.503Z,26.55
2022-12-03T11:16:41.874Z,25.67
2022-12-03T11:19:48.791Z,21.70
2022-12-03T11:22:52.050Z,22.77
2022-12-03T11:25:55.042Z,23.60
2022-12-03T11:28:59.224Z,25.67
2022-12-03T11:32:02.342Z,27.33
2022-12-03T11:35:12.688Z,22.85
2022-12-03T11:38:37.848Z,24.15
2022-12-03T11:41:40.393Z,22.95
2022-12-03T11:44:43.594Z,23.15
2022-12-03T11:47:58.074Z,21.23
2022-12-03T11:51:01.312Z,19.85
2022-12-03T11:54:03.782Z,20.77
2022-12-03T11:57:26.820Z,21.08
2022-12-03T12:00:30.060Z,22.50
2022-12-03T12:03:45.886Z,20.85
2022-12-03T12:06:53.203Z,18.62
2022-12-03T12:09:57.473Z,20.33
2022-12-03T12:13:00.117Z,19.20
2022-12-03T12:16:06.643Z,19.55
2022-12-03T12:19:41.402Z,20.88
2022-12-03T12:22:44.758Z,21.10
2022-12-03T12:25:52.442Z,19.15
2022-12-03T12:28:57.094Z,20.27
2022-12-03T12:32:23.150Z,18.52
2022-12-03T12:35:30.821Z,17.30
2022-12-03T12:38:33.479Z,19.83
2022-12-03T12:41:36.462Z,21.48
2022-12-03T12:44:38.933Z,23.25
2022-12-03T12:51:06.183Z,21.52
2022-12-03T12:54:15.278Z,20.95
2022-12-03T12:57:22.383Z,26.20
2022-12-03T13:00:25.463Z,20.60
2022-12-03T13:03:33.668Z,26.17
2022-12-03T13:06:39.602Z,23.08
2022-12-03T13:09:44.551Z,23.12
2022-12-03T13:12:47.794Z,24.63
2022-12-03T13:16:07.136Z,24.85
2022-12-03T13:19:39.598Z,24.48
2022-12-03T13:22:48.807Z,23.23
2022-12-03T13:26:02.311Z,22.50
2022-12-03T13:29:15.830Z,25.75
2022-12-03T13:32:19.783Z,23.65
2022-12-03T13:38:28.065Z,24.67
2022-12-03T13:41:49.298Z,25.10
2022-12-03T13:44:53.628Z,28.00
2022-12-03T13:48:01.237Z,23.92
2022-12-03T13:51:35.262Z,26.23
2022-12-03T13:54:39.313Z,29.92
2022-12-03T13:57:42.464Z,24.75
2022-12-03T14:00:45.997Z,26.20
2022-12-03T14:03:50.730Z,25.30
2022-12-03T14:06:53.655Z,25.05
2022-12-03T14:09:57.070Z,24.80
2022-12-03T14:12:59.852Z,26.05
2022-12-03T14:16:02.921Z,26.52
2022-12-03T14:19:06.261Z,25.10
2022-12-03T14:22:10.049Z,25.00
2022-12-03T14:25:12.611Z,25.05
2022-12-03T14:28:15.689Z,26.67
2022-12-03T14:31:18.260Z,23.23
2022-12-03T14:34:21.320Z,28.52
2022-12-03T14:37:23.882Z,26.17
2022-12-03T14:40:27.235Z,26.73
2022-12-03T14:43:29.888Z,29.00
2022-12-03T14:46:33.357Z,27.75
2022-12-03T14:49:36.326Z,24.92
2022-12-03T14:52:39.351Z,26.40
2022-12-03T14:55:41.928Z,27.13
2022-12-03T14:58:44.969Z,25.00
2022-12-03T15:01:47.450Z,26.70
2022-12-03T15:04:50.564Z,24.85
2022-12-03T15:07:53.154Z,25.70
2022-12-03T15:10:56.498Z,24.05
2022-12-03T15:13:59.135Z,25.55
2022-12-03T15:17:02.175Z,25.67
2022-12-03T15:20:05.259Z,26.00
2022-12-03T15:23:13.892Z,28.00
2022-12-03T15:26:17.026Z,29.58
2022-12-03T15:29:20.804Z,27.58
2022-12-03T15:32:23.287Z,28.45
2022-12-03T15:35:26.349Z,31.77
2022-12-03T15:38:28.866Z,28.23
2022-12-03T15:41:31.970Z,26.02
2022-12-03T15:44:34.655Z,27.03
2022-12-03T15:47:39.045Z,26.55
2022-12-03T15:50:41.571Z,28.57
2022-12-03T15:53:44.698Z,28.90
2022-12-03T15:56:47.194Z,30.00
2022-12-03T15:59:51.584Z,27.62
2022-12-03T16:02:54.492Z,28.40
2022-12-03T16:05:57.630Z,31.37
2022-12-03T16:09:00.128Z,35.20
2022-12-03T16:12:03.357Z,28.05
2022-12-03T16:15:06.324Z,32.78
2022-12-03T16:18:09.568Z,32.10
2022-12-03T16:21:12.046Z,33.63
2022-12-03T16:24:15.391Z,47.88
2022-12-03T16:27:21.587Z,62.87
2022-12-03T16:30:27.335Z,35.58
2022-12-03T16:33:29.930Z,31.60
2022-12-03T16:36:33.119Z,37.08
2022-12-03T16:39:35.562Z,31.67
2022-12-03T16:42:38.637Z,30.40
2022-12-03T16:46:13.459Z,34.60
2022-12-03T16:49:16.605Z,31.65
2022-12-03T16:52:19.113Z,33.10
2022-12-03T16:55:22.312Z,32.17
2022-12-03T16:58:24.771Z,32.60
2022-12-03T17:01:27.970Z,32.70
2022-12-03T17:04:30.708Z,37.13
2022-12-03T17:07:33.868Z,37.40
2022-12-03T17:10:36.452Z,35.13
2022-12-03T17:13:39.687Z,34.70
2022-12-03T17:16:42.256Z,33.35
2022-12-03T17:19:45.446Z,35.60
2022-12-03T17:22:47.949Z,60.43
2022-12-03T17:25:51.190Z,42.70
2022-12-03T17:28:53.648Z,36.50
2022-12-03T17:31:56.983Z,35.40
2022-12-03T17:34:59.714Z,34.72
2022-12-03T17:38:02.852Z,35.13
2022-12-03T17:41:05.554Z,38.70
2022-12-03T17:44:10.837Z,40.67
2022-12-03T17:47:15.534Z,38.05
2022-12-03T17:50:18.666Z,39.67
2022-12-03T17:53:21.404Z,37.67
2022-12-03T17:56:24.430Z,41.33
2022-12-03T17:59:26.981Z,38.40
2022-12-03T18:02:30.285Z,39.38
2022-12-03T18:05:33.111Z,37.60
2022-12-03T18:08:35.881Z,44.28
2022-12-03T18:11:38.943Z,41.33
2022-12-03T18:14:43.293Z,40.88
2022-12-03T18:17:46.145Z,43.53
2022-12-03T18:20:49.026Z,44.50
2022-12-03T18:23:52.582Z,45.10
2022-12-03T18:30:00.120Z,40.80
2022-12-03T18:33:02.937Z,45.47
2022-12-03T18:36:09.437Z,44.70
2022-12-03T18:39:26.613Z,44.08
2022-12-03T18:42:29.443Z,41.05
2022-12-03T18:45:32.300Z,45.35
2022-12-03T18:48:35.066Z,45.88
2022-12-03T18:51:37.985Z,48.55
2022-12-03T18:54:40.853Z,46.33
2022-12-03T18:57:43.791Z,43.13
2022-12-03T19:00:46.745Z,45.63
2022-12-03T19:03:53.280Z,47.17
2022-12-03T19:06:58.227Z,44.08
2022-12-03T19:10:01.035Z,49.40
2022-12-03T19:13:03.967Z,42.30
2022-12-03T19:16:08.754Z,42.90
2022-12-03T19:19:12.022Z,39.03
2022-12-03T19:22:14.799Z,42.47
2022-12-03T19:25:18.420Z,43.45
2022-12-03T19:28:21.390Z,42.08
2022-12-03T19:31:26.297Z,41.67
2022-12-03T19:34:29.326Z,39.95
2022-12-03T19:37:33.708Z,40.75
2022-12-03T19:40:36.573Z,44.55
2022-12-03T19:43:39.897Z,42.62
2022-12-03T19:46:43.489Z,41.30
2022-12-03T19:49:46.260Z,42.33
2022-12-03T19:52:50.018Z,41.37
2022-12-03T19:55:53.273Z,49.47
2022-12-03T19:58:56.772Z,52.97
2022-12-03T20:05:02.625Z,47.30
2022-12-03T20:08:06.615Z,44.20
2022-12-03T20:11:12.695Z,40.75
2022-12-03T20:14:16.186Z,42.45
2022-12-03T20:17:19.243Z,41.10
2022-12-03T20:20:22.003Z,43.47
2022-12-03T20:23:25.386Z,45.38
2022-12-03T20:26:28.799Z,40.35
2022-12-03T20:29:31.923Z,43.00
2022-12-03T20:32:40.723Z,40.87
2022-12-03T20:38:55.724Z,39.50
2022-12-03T20:41:58.902Z,39.45
2022-12-03T20:45:03.183Z,38.42
2022-12-03T20:48:06.867Z,38.67
2022-12-03T20:51:11.688Z,40.47
2022-12-03T20:54:15.021Z,44.42
2022-12-03T20:57:17.645Z,39.05
2022-12-03T21:00:24.010Z,41.72
2022-12-03T21:03:26.542Z,40.25
2022-12-03T21:06:34.056Z,41.30
2022-12-03T21:09:36.951Z,45.45
2022-12-03T21:12:41.915Z,43.95
2022-12-03T21:15:48.346Z,44.70
2022-12-03T21:18:52.683Z,42.45
2022-12-03T21:21:55.307Z,42.85
2022-12-03T21:24:59.438Z,45.65
2022-12-03T21:28:06.674Z,43.17
2022-12-03T21:31:13.846Z,43.15
2022-12-03T21:34:16.579Z,44.97
2022-12-03T21:37:19.750Z,43.58
2022-12-03T21:40:22.532Z,42.78
2022-12-03T21:43:25.767Z,45.38
2022-12-03T21:47:11.763Z,42.50
2022-12-03T21:49:51.816Z,45.67
2022-12-03T21:52:54.997Z,44.78
2022-12-03T21:55:58.879Z,40.30
2022-12-03T21:59:01.385Z,48.60
2022-12-03T22:02:04.631Z,49.50
2022-12-03T22:05:08.595Z,46.20
2022-12-03T22:08:12.758Z,51.20
2022-12-03T22:11:19.399Z,46.17
2022-12-03T22:14:22.288Z,50.17
2022-12-03T22:17:25.672Z,45.65
2022-12-03T22:23:33.230Z,46.40
2022-12-03T22:26:36.026Z,45.58
2022-12-03T22:29:38.967Z,44.95
2022-12-03T22:32:41.733Z,49.92
2022-12-03T22:35:53.679Z,45.00
2022-12-03T22:38:56.728Z,49.70
2022-12-03T22:41:59.553Z,46.65
2022-12-03T22:45:02.354Z,49.63
2022-12-03T22:48:05.398Z,52.25
2022-12-03T22:51:24.269Z,45.47
2022-12-03T22:54:27.447Z,45.70
2022-12-03T22:57:31.386Z,48.05
2022-12-03T23:00:37.259Z,44.35
2022-12-03T23:03:40.043Z,45.65
2022-12-03T23:06:43.593Z,46.30
2022-12-03T23:12:48.985Z,46.60
2022-12-03T23:15:52.396Z,47.15
2022-12-03T23:21:58.340Z,38.00
2022-12-03T23:25:01.111Z,43.92
2022-12-03T23:28:04.754Z,41.97
2022-12-03T23:31:17.147Z,46.33
2022-12-03T23:34:20.038Z,40.47
2022-12-03T23:37:23.700Z,39.20
2022-12-03T23:40:26.656Z,40.47
2022-12-03T23:43:29.419Z,41.22
2022-12-03T23:46:32.238Z,42.33
2022-12-03T23:49:35.201Z,45.10
2022-12-03T23:52:38.158Z,43.50
2022-12-03T23:55:41.471Z,45.33
2022-12-03T23:58:45.150Z,37.50
